sensor_id;sensor_type;location;lat;lon;timestamp;pressure;altitude;pressure_sealevel;temperature;humidity
40315;BME280;26021;45.640;11.302;2023-02-18T00:01:23;100003.66;;;5.46;100.00
40315;BME280;26021;45.640;11.302;2023-02-18T00:03:49;100000.41;;;5.42;100.00
40315;BME280;26021;45.640;11.302;2023-02-18T00:06:21;99871.00;;;4.41;100.00
40315;BME280;26021;45.640;11.302;2023-02-18T00:08:48;99930.88;;;4.91;100.00
40315;BME280;26021;45.640;11.302;2023-02-18T00:11:14;100009.69;;;5.48;100.00
40315;BME280;26021;45.640;11.302;2023-02-18T00:13:40;99995.44;;;5.38;100.00
40315;BME280;26021;45.640;11.302;2023-02-18T00:16:08;99964.53;;;5.26;100.00
40315;BME280;26021;45.640;11.302;2023-02-18T00:18:33;99993.50;;;5.29;100.00
40315;BME280;26021;45.640;11.302;2023-02-18T00:20:59;100002.44;;;5.39;100.00
40315;BME280;26021;45.640;11.302;2023-02-18T00:23:26;99993.06;;;5.46;100.00
40315;BME280;26021;45.640;11.302;2023-02-18T00:26:03;99996.66;;;5.45;100.00
40315;BME280;26021;45.640;11.302;2023-02-18T00:28:29;99992.22;;;5.46;100.00
40315;BME280;26021;45.640;11.302;2023-02-18T00:30:54;99996.97;;;5.64;100.00
40315;BME280;26021;45.640;11.302;2023-02-18T00:33:20;99987.41;;;5.51;100.00
40315;BME280;26021;45.640;11.302;2023-02-18T00:35:45;99911.41;;;5.03;100.00
40315;BME280;26021;45.640;11.302;2023-02-18T00:38:11;99986.81;;;5.58;100.00
40315;BME280;26021;45.640;11.302;2023-02-18T00:40:37;99985.59;;;5.51;100.00
40315;BME280;26021;45.640;11.302;2023-02-18T00:43:03;99984.63;;;5.52;100.00
40315;BME280;26021;45.640;11.302;2023-02-18T00:45:28;99980.03;;;5.54;100.00
40315;BME280;26021;45.640;11.302;2023-02-18T00:47:54;99978.13;;;5.56;100.00
40315;BME280;26021;45.640;11.302;2023-02-18T00:50:19;99971.69;;;5.94;100.00
40315;BME280;26021;45.640;11.302;2023-02-18T00:52:44;99973.22;;;5.85;100.00
40315;BME280;26021;45.640;11.302;2023-02-18T00:55:10;99974.63;;;5.67;100.00
40315;BME280;26021;45.640;11.302;2023-02-18T00:57:35;99972.97;;;5.77;100.00
40315;BME280;26021;45.640;11.302;2023-02-18T01:00:03;99788.94;;;4.87;100.00
40315;BME280;26021;45.640;11.302;2023-02-18T01:02:29;99969.69;;;5.73;100.00
40315;BME280;26021;45.640;11.302;2023-02-18T01:04:54;99977.06;;;5.70;100.00
40315;BME280;26021;45.640;11.302;2023-02-18T01:07:20;99982.59;;;5.67;100.00
40315;BME280;26021;45.640;11.302;2023-02-18T01:09:45;99979.94;;;5.67;100.00
40315;BME280;26021;45.640;11.302;2023-02-18T01:12:11;99943.16;;;5.73;100.00
40315;BME280;26021;45.640;11.302;2023-02-18T01:14:36;99939.41;;;5.65;100.00
40315;BME280;26021;45.640;11.302;2023-02-18T01:17:02;99966.78;;;5.65;100.00
40315;BME280;26021;45.640;11.302;2023-02-18T01:19:27;99910.94;;;5.56;100.00
40315;BME280;26021;45.640;11.302;2023-02-18T01:21:53;99959.41;;;6.04;100.00
40315;BME280;26021;45.640;11.302;2023-02-18T01:24:18;99961.28;;;5.91;100.00
40315;BME280;26021;45.640;11.302;2023-02-18T01:26:43;99910.31;;;5.52;100.00
40315;BME280;26021;45.640;11.302;2023-02-18T01:29:09;99957.88;;;5.89;100.00
40315;BME280;26021;45.640;11.302;2023-02-18T01:31:34;99937.00;;;5.73;100.00
40315;BME280;26021;45.640;11.302;2023-02-18T01:34:00;99954.19;;;5.91;100.00
40315;BME280;26021;45.640;11.302;2023-02-18T01:36:25;99955.66;;;5.95;100.00
40315;BME280;26021;45.640;11.302;2023-02-18T01:38:51;99950.22;;;5.97;100.00
40315;BME280;26021;45.640;11.302;2023-02-18T01:41:17;99950.72;;;6.02;100.00
40315;BME280;26021;45.640;11.302;2023-02-18T01:43:43;99916.00;;;5.70;100.00
40315;BME280;26021;45.640;11.302;2023-02-18T01:48:46;99904.09;;;6.09;100.00
40315;BME280;26021;45.640;11.302;2023-02-18T01:53:47;99942.00;;;6.22;100.00
40315;BME280;26021;45.640;11.302;2023-02-18T01:56:19;99927.16;;;6.20;100.00
40315;BME280;26021;45.640;11.302;2023-02-18T01:58:47;99836.38;;;5.59;100.00
40315;BME280;26021;45.640;11.302;2023-02-18T02:01:13;99937.91;;;6.07;100.00
40315;BME280;26021;45.640;11.302;2023-02-18T02:03:38;99939.72;;;6.18;100.00
40315;BME280;26021;45.640;11.302;2023-02-18T02:06:11;99940.06;;;6.24;100.00
40315;BME280;26021;45.640;11.302;2023-02-18T02:08:38;99926.53;;;6.27;100.00
40315;BME280;26021;45.640;11.302;2023-02-18T02:12:15;99926.03;;;6.33;100.00
40315;BME280;26021;45.640;11.302;2023-02-18T02:17:07;99935.25;;;5.96;100.00
40315;BME280;26021;45.640;11.302;2023-02-18T02:36:58;99917.81;;;6.36;100.00
40315;BME280;26021;45.640;11.302;2023-02-18T02:39:31;99914.22;;;6.26;100.00
40315;BME280;26021;45.640;11.302;2023-02-18T02:42:25;99910.31;;;6.42;100.00
40315;BME280;26021;45.640;11.302;2023-02-18T02:44:57;99901.19;;;6.23;100.00
40315;BME280;26021;45.640;11.302;2023-02-18T02:47:32;99785.97;;;5.36;100.00
40315;BME280;26021;45.640;11.302;2023-02-18T02:52:49;99897.94;;;6.63;100.00
40315;BME280;26021;45.640;11.302;2023-02-18T02:55:16;99897.28;;;6.38;100.00
40315;BME280;26021;45.640;11.302;2023-02-18T03:00:11;99695.44;;;5.07;100.00
40315;BME280;26021;45.640;11.302;2023-02-18T03:06:05;99874.63;;;6.12;100.00
40315;BME280;26021;45.640;11.302;2023-02-18T03:11:07;99871.00;;;6.24;100.00
40315;BME280;26021;45.640;11.302;2023-02-18T03:16:40;99890.81;;;6.63;100.00
40315;BME280;26021;45.640;11.302;2023-02-18T03:19:29;99874.72;;;6.65;100.00
40315;BME280;26021;45.640;11.302;2023-02-18T03:24:29;99873.75;;;6.66;100.00
40315;BME280;26021;45.640;11.302;2023-02-18T03:27:02;99829.88;;;6.40;100.00
40315;BME280;26021;45.640;11.302;2023-02-18T03:29:28;99853.81;;;6.72;100.00
40315;BME280;26021;45.640;11.302;2023-02-18T03:31:57;99851.63;;;6.65;100.00
40315;BME280;26021;45.640;11.302;2023-02-18T03:34:30;99876.06;;;6.71;100.00
40315;BME280;26021;45.640;11.302;2023-02-18T03:36:59;99887.38;;;6.41;100.00
40315;BME280;26021;45.640;11.302;2023-02-18T03:39:28;99884.50;;;6.32;100.00
40315;BME280;26021;45.640;11.302;2023-02-18T03:41:54;99798.22;;;6.16;100.00
40315;BME280;26021;45.640;11.302;2023-02-18T03:44:20;99882.53;;;6.46;100.00
40315;BME280;26021;45.640;11.302;2023-02-18T03:46:45;99873.13;;;6.42;100.00
40315;BME280;26021;45.640;11.302;2023-02-18T03:49:12;99848.09;;;6.12;100.00
40315;BME280;26021;45.640;11.302;2023-02-18T03:51:38;99877.38;;;6.33;100.00
40315;BME280;26021;45.640;11.302;2023-02-18T03:54:04;99818.06;;;6.00;100.00
40315;BME280;26021;45.640;11.302;2023-02-18T03:56:29;99880.28;;;6.62;100.00
40315;BME280;26021;45.640;11.302;2023-02-18T03:58:55;99889.88;;;6.53;100.00
40315;BME280;26021;45.640;11.302;2023-02-18T04:01:20;99885.09;;;6.79;100.00
40315;BME280;26021;45.640;11.302;2023-02-18T04:03:46;99886.06;;;6.67;100.00
40315;BME280;26021;45.640;11.302;2023-02-18T04:06:11;99875.09;;;6.92;100.00
40315;BME280;26021;45.640;11.302;2023-02-18T04:08:37;99875.59;;;6.54;100.00
40315;BME280;26021;45.640;11.302;2023-02-18T04:11:03;99874.31;;;6.49;100.00
40315;BME280;26021;45.640;11.302;2023-02-18T04:13:29;99733.25;;;5.54;100.00
40315;BME280;26021;45.640;11.302;2023-02-18T04:15:55;99872.41;;;6.40;100.00
40315;BME280;26021;45.640;11.302;2023-02-18T04:18:21;99864.56;;;6.38;100.00
40315;BME280;26021;45.640;11.302;2023-02-18T04:20:47;99802.13;;;6.32;100.00
40315;BME280;26021;45.640;11.302;2023-02-18T04:23:12;99862.63;;;6.72;100.00
40315;BME280;26021;45.640;11.302;2023-02-18T04:25:38;99863.53;;;6.50;100.00
40315;BME280;26021;45.640;11.302;2023-02-18T04:28:03;99873.59;;;6.47;100.00
40315;BME280;26021;45.640;11.302;2023-02-18T04:30:29;99870.81;;;6.48;100.00
40315;BME280;26021;45.640;11.302;2023-02-18T04:32:56;99869.09;;;6.47;100.00
40315;BME280;26021;45.640;11.302;2023-02-18T04:35:21;99844.47;;;6.45;100.00
40315;BME280;26021;45.640;11.302;2023-02-18T04:37:47;99853.34;;;6.34;100.00
40315;BME280;26021;45.640;11.302;2023-02-18T04:40:13;99880.84;;;6.45;100.00
40315;BME280;26021;45.640;11.302;2023-02-18T04:42:39;99882.88;;;6.52;100.00
40315;BME280;26021;45.640;11.302;2023-02-18T04:45:04;99885.19;;;6.46;100.00
40315;BME280;26021;45.640;11.302;2023-02-18T04:47:30;99877.69;;;6.51;100.00
40315;BME280;26021;45.640;11.302;2023-02-18T04:49:55;99881.00;;;6.64;100.00
40315;BME280;26021;45.640;11.302;2023-02-18T04:52:21;99874.84;;;6.63;100.00
40315;BME280;26021;45.640;11.302;2023-02-18T04:54:47;99870.50;;;6.74;100.00
40315;BME280;26021;45.640;11.302;2023-02-18T04:57:12;99874.06;;;6.52;100.00
40315;BME280;26021;45.640;11.302;2023-02-18T04:59:38;99867.13;;;6.60;100.00
40315;BME280;26021;45.640;11.302;2023-02-18T05:02:03;99873.75;;;6.66;100.00
40315;BME280;26021;45.640;11.302;2023-02-18T05:04:29;99850.25;;;6.50;100.00
40315;BME280;26021;45.640;11.302;2023-02-18T05:06:55;99874.91;;;6.84;100.00
40315;BME280;26021;45.640;11.302;2023-02-18T05:09:20;99867.16;;;6.49;100.00
40315;BME280;26021;45.640;11.302;2023-02-18T05:11:46;99878.31;;;6.43;100.00
40315;BME280;26021;45.640;11.302;2023-02-18T05:14:14;99864.59;;;6.59;100.00
40315;BME280;26021;45.640;11.302;2023-02-18T05:16:39;99863.00;;;6.35;100.00
40315;BME280;26021;45.640;11.302;2023-02-18T05:19:05;99870.59;;;6.40;100.00
40315;BME280;26021;45.640;11.302;2023-02-18T05:21:31;99796.06;;;6.10;100.00
40315;BME280;26021;45.640;11.302;2023-02-18T05:23:57;99805.81;;;6.20;100.00
40315;BME280;26021;45.640;11.302;2023-02-18T05:26:23;99798.16;;;5.95;100.00
40315;BME280;26021;45.640;11.302;2023-02-18T05:28:48;99879.66;;;6.37;100.00
40315;BME280;26021;45.640;11.302;2023-02-18T05:31:14;99804.03;;;6.10;100.00
40315;BME280;26021;45.640;11.302;2023-02-18T05:33:40;99877.50;;;6.63;100.00
40315;BME280;26021;45.640;11.302;2023-02-18T05:36:06;99866.16;;;6.61;100.00
40315;BME280;26021;45.640;11.302;2023-02-18T05:38:31;99882.56;;;6.78;100.00
40315;BME280;26021;45.640;11.302;2023-02-18T05:40:56;99861.69;;;6.62;100.00
40315;BME280;26021;45.640;11.302;2023-02-18T05:43:22;99880.59;;;6.48;100.00
40315;BME280;26021;45.640;11.302;2023-02-18T05:45:47;99874.81;;;6.43;100.00
40315;BME280;26021;45.640;11.302;2023-02-18T05:48:13;99815.25;;;5.91;100.00
40315;BME280;26021;45.640;11.302;2023-02-18T05:50:38;99868.53;;;6.44;100.00
40315;BME280;26021;45.640;11.302;2023-02-18T05:53:04;99877.91;;;6.16;100.00
40315;BME280;26021;45.640;11.302;2023-02-18T05:55:29;99876.28;;;6.35;100.00
40315;BME280;26021;45.640;11.302;2023-02-18T05:57:55;99885.34;;;6.33;100.00
40315;BME280;26021;45.640;11.302;2023-02-18T06:00:21;99886.41;;;6.42;100.00
40315;BME280;26021;45.640;11.302;2023-02-18T06:02:46;99887.44;;;6.18;100.00
40315;BME280;26021;45.640;11.302;2023-02-18T06:05:11;99901.91;;;6.25;100.00
40315;BME280;26021;45.640;11.302;2023-02-18T06:07:37;99907.78;;;6.40;100.00
40315;BME280;26021;45.640;11.302;2023-02-18T06:10:04;99909.97;;;6.35;100.00
40315;BME280;26021;45.640;11.302;2023-02-18T06:12:29;99896.44;;;6.38;100.00
40315;BME280;26021;45.640;11.302;2023-02-18T06:14:55;99900.69;;;6.29;100.00
40315;BME280;26021;45.640;11.302;2023-02-18T06:17:20;99910.91;;;6.45;100.00
40315;BME280;26021;45.640;11.302;2023-02-18T06:19:47;99913.78;;;6.53;100.00
40315;BME280;26021;45.640;11.302;2023-02-18T06:22:13;99915.19;;;6.68;100.00
40315;BME280;26021;45.640;11.302;2023-02-18T06:24:39;99915.84;;;6.50;100.00
40315;BME280;26021;45.640;11.302;2023-02-18T06:27:04;99919.09;;;6.53;100.00
40315;BME280;26021;45.640;11.302;2023-02-18T06:29:30;99917.06;;;6.46;100.00
40315;BME280;26021;45.640;11.302;2023-02-18T06:31:57;99872.31;;;6.30;100.00
40315;BME280;26021;45.640;11.302;2023-02-18T06:34:22;99917.66;;;6.49;100.00
40315;BME280;26021;45.640;11.302;2023-02-18T06:36:48;99917.56;;;6.40;100.00
40315;BME280;26021;45.640;11.302;2023-02-18T06:39:14;99876.09;;;5.94;100.00
40315;BME280;26021;45.640;11.302;2023-02-18T06:41:39;99914.69;;;6.31;100.00
40315;BME280;26021;45.640;11.302;2023-02-18T06:44:05;99918.66;;;6.37;100.00
40315;BME280;26021;45.640;11.302;2023-02-18T06:46:31;99930.38;;;6.34;100.00
40315;BME280;26021;45.640;11.302;2023-02-18T06:48:56;99896.38;;;6.17;100.00
40315;BME280;26021;45.640;11.302;2023-02-18T06:51:22;99914.34;;;6.25;100.00
40315;BME280;26021;45.640;11.302;2023-02-18T06:53:47;99912.19;;;6.19;100.00
40315;BME280;26021;45.640;11.302;2023-02-18T06:56:13;99918.78;;;6.35;100.00
40315;BME280;26021;45.640;11.302;2023-02-18T06:58:38;99928.41;;;6.48;100.00
40315;BME280;26021;45.640;11.302;2023-02-18T07:01:04;99940.03;;;6.47;100.00
40315;BME280;26021;45.640;11.302;2023-02-18T07:03:29;99930.47;;;6.44;100.00
40315;BME280;26021;45.640;11.302;2023-02-18T07:05:55;99935.94;;;6.31;100.00
40315;BME280;26021;45.640;11.302;2023-02-18T07:08:21;99929.19;;;6.27;100.00
40315;BME280;26021;45.640;11.302;2023-02-18T07:10:46;99931.31;;;6.45;100.00
40315;BME280;26021;45.640;11.302;2023-02-18T07:13:12;99933.03;;;6.34;100.00
40315;BME280;26021;45.640;11.302;2023-02-18T07:15:38;99922.09;;;6.60;100.00
40315;BME280;26021;45.640;11.302;2023-02-18T07:18:04;99932.66;;;6.50;100.00
40315;BME280;26021;45.640;11.302;2023-02-18T07:20:29;99935.69;;;6.46;100.00
40315;BME280;26021;45.640;11.302;2023-02-18T07:22:55;99929.63;;;6.44;100.00
40315;BME280;26021;45.640;11.302;2023-02-18T07:25:20;99933.25;;;6.54;100.00
40315;BME280;26021;45.640;11.302;2023-02-18T07:27:46;99934.56;;;6.59;100.00
40315;BME280;26021;45.640;11.302;2023-02-18T07:30:12;99925.84;;;6.57;100.00
40315;BME280;26021;45.640;11.302;2023-02-18T07:32:38;99932.34;;;6.76;100.00
40315;BME280;26021;45.640;11.302;2023-02-18T07:35:04;99936.31;;;6.81;100.00
40315;BME280;26021;45.640;11.302;2023-02-18T07:37:30;99945.31;;;6.69;100.00
40315;BME280;26021;45.640;11.302;2023-02-18T07:39:56;99937.56;;;6.66;100.00
40315;BME280;26021;45.640;11.302;2023-02-18T07:42:22;99941.44;;;6.73;100.00
40315;BME280;26021;45.640;11.302;2023-02-18T07:44:47;99934.47;;;6.50;100.00
40315;BME280;26021;45.640;11.302;2023-02-18T07:47:15;99934.88;;;6.77;100.00
40315;BME280;26021;45.640;11.302;2023-02-18T07:49:43;99942.47;;;6.82;100.00
40315;BME280;26021;45.640;11.302;2023-02-18T07:52:08;99950.59;;;6.80;100.00
40315;BME280;26021;45.640;11.302;2023-02-18T07:54:34;99948.44;;;7.06;100.00
40315;BME280;26021;45.640;11.302;2023-02-18T07:56:59;99934.94;;;6.55;100.00
40315;BME280;26021;45.640;11.302;2023-02-18T07:59:25;99951.69;;;6.66;100.00
40315;BME280;26021;45.640;11.302;2023-02-18T08:01:50;99953.88;;;6.73;100.00
40315;BME280;26021;45.640;11.302;2023-02-18T08:04:15;99946.50;;;6.65;100.00
40315;BME280;26021;45.640;11.302;2023-02-18T08:06:43;99947.72;;;6.72;100.00
40315;BME280;26021;45.640;11.302;2023-02-18T08:09:10;99903.66;;;6.47;100.00
40315;BME280;26021;45.640;11.302;2023-02-18T08:11:36;99949.72;;;7.12;100.00
40315;BME280;26021;45.640;11.302;2023-02-18T08:14:02;99953.75;;;7.06;100.00
40315;BME280;26021;45.640;11.302;2023-02-18T08:16:27;99941.94;;;6.99;100.00
40315;BME280;26021;45.640;11.302;2023-02-18T08:18:53;99950.16;;;6.96;100.00
40315;BME280;26021;45.640;11.302;2023-02-18T08:21:20;99947.47;;;7.07;100.00
40315;BME280;26021;45.640;11.302;2023-02-18T08:23:47;99943.78;;;7.19;100.00
40315;BME280;26021;45.640;11.302;2023-02-18T08:26:13;99947.16;;;7.21;100.00
40315;BME280;26021;45.640;11.302;2023-02-18T08:28:39;99952.34;;;7.23;100.00
40315;BME280;26021;45.640;11.302;2023-02-18T08:31:04;99948.75;;;7.13;100.00
40315;BME280;26021;45.640;11.302;2023-02-18T08:33:30;99940.00;;;7.01;100.00
40315;BME280;26021;45.640;11.302;2023-02-18T08:35:56;99850.63;;;6.46;100.00
40315;BME280;26021;45.640;11.302;2023-02-18T08:38:22;99941.16;;;7.08;100.00
40315;BME280;26021;45.640;11.302;2023-02-18T08:40:48;99925.63;;;6.92;100.00
40315;BME280;26021;45.640;11.302;2023-02-18T08:43:15;99941.81;;;7.21;100.00
40315;BME280;26021;45.640;11.302;2023-02-18T08:45:42;99873.94;;;6.85;100.00
40315;BME280;26021;45.640;11.302;2023-02-18T08:48:10;99922.75;;;7.16;100.00
40315;BME280;26021;45.640;11.302;2023-02-18T08:50:36;99944.63;;;7.20;100.00
40315;BME280;26021;45.640;11.302;2023-02-18T08:53:02;99827.13;;;6.62;100.00
40315;BME280;26021;45.640;11.302;2023-02-18T08:55:29;99933.84;;;7.42;100.00
40315;BME280;26021;45.640;11.302;2023-02-18T08:57:55;99886.22;;;7.18;100.00
40315;BME280;26021;45.640;11.302;2023-02-18T09:00:21;99924.38;;;7.28;100.00
40315;BME280;26021;45.640;11.302;2023-02-18T09:02:47;99909.25;;;7.29;100.00
40315;BME280;26021;45.640;11.302;2023-02-18T09:05:12;99924.91;;;7.43;100.00
40315;BME280;26021;45.640;11.302;2023-02-18T09:07:39;99926.38;;;7.36;100.00
40315;BME280;26021;45.640;11.302;2023-02-18T09:10:05;99929.59;;;7.51;100.00
40315;BME280;26021;45.640;11.302;2023-02-18T09:12:31;99884.34;;;7.09;100.00
40315;BME280;26021;45.640;11.302;2023-02-18T09:14:57;99928.28;;;7.45;100.00
40315;BME280;26021;45.640;11.302;2023-02-18T09:17:23;99936.38;;;7.64;100.00
40315;BME280;26021;45.640;11.302;2023-02-18T09:19:48;99945.22;;;7.65;100.00
40315;BME280;26021;45.640;11.302;2023-02-18T09:22:14;99938.97;;;7.76;100.00
40315;BME280;26021;45.640;11.302;2023-02-18T09:24:40;99935.28;;;7.67;100.00
40315;BME280;26021;45.640;11.302;2023-02-18T09:27:06;99939.69;;;7.78;100.00
40315;BME280;26021;45.640;11.302;2023-02-18T09:29:31;99940.13;;;7.83;100.00
40315;BME280;26021;45.640;11.302;2023-02-18T09:32:01;99925.34;;;7.69;100.00
40315;BME280;26021;45.640;11.302;2023-02-18T09:34:27;99925.16;;;7.61;100.00
40315;BME280;26021;45.640;11.302;2023-02-18T09:36:52;99924.97;;;7.53;100.00
40315;BME280;26021;45.640;11.302;2023-02-18T09:39:18;99929.38;;;7.63;100.00
40315;BME280;26021;45.640;11.302;2023-02-18T09:41:47;99920.53;;;7.63;100.00
40315;BME280;26021;45.640;11.302;2023-02-18T09:44:31;99931.59;;;7.58;100.00
40315;BME280;26021;45.640;11.302;2023-02-18T09:47:05;99927.75;;;7.51;100.00
40315;BME280;26021;45.640;11.302;2023-02-18T09:49:37;99920.69;;;7.61;100.00
40315;BME280;26021;45.640;11.302;2023-02-18T09:52:18;99918.81;;;7.52;100.00
40315;BME280;26021;45.640;11.302;2023-02-18T09:54:45;99921.00;;;7.47;100.00
40315;BME280;26021;45.640;11.302;2023-02-18T09:57:27;99917.28;;;7.39;100.00
40315;BME280;26021;45.640;11.302;2023-02-18T10:00:22;99924.31;;;7.40;100.00
40315;BME280;26021;45.640;11.302;2023-02-18T10:02:55;99922.63;;;7.39;100.00
40315;BME280;26021;45.640;11.302;2023-02-18T10:05:22;99928.41;;;7.44;100.00
40315;BME280;26021;45.640;11.302;2023-02-18T10:07:50;99877.56;;;7.26;100.00
40315;BME280;26021;45.640;11.302;2023-02-18T10:10:38;99921.06;;;7.57;100.00
40315;BME280;26021;45.640;11.302;2023-02-18T10:13:13;99882.81;;;7.37;100.00
40315;BME280;26021;45.640;11.302;2023-02-18T10:15:39;99926.53;;;7.55;100.00
40315;BME280;26021;45.640;11.302;2023-02-18T10:18:38;99926.34;;;7.47;100.00
40315;BME280;26021;45.640;11.302;2023-02-18T10:23:32;99924.06;;;7.63;100.00
40315;BME280;26021;45.640;11.302;2023-02-18T10:26:00;99927.09;;;7.59;100.00
40315;BME280;26021;45.640;11.302;2023-02-18T10:28:27;99916.91;;;7.64;100.00
40315;BME280;26021;45.640;11.302;2023-02-18T10:31:02;99906.66;;;7.59;100.00
40315;BME280;26021;45.640;11.302;2023-02-18T10:36:13;99914.44;;;7.51;100.00
40315;BME280;26021;45.640;11.302;2023-02-18T10:50:00;99913.75;;;7.49;100.00
40315;BME280;26021;45.640;11.302;2023-02-18T10:52:29;99911.97;;;7.59;100.00
40315;BME280;26021;45.640;11.302;2023-02-18T10:57:26;99903.50;;;7.75;100.00
40315;BME280;26021;45.640;11.302;2023-02-18T11:00:33;99899.91;;;7.86;100.00
40315;BME280;26021;45.640;11.302;2023-02-18T11:03:15;99888.25;;;7.77;100.00
40315;BME280;26021;45.640;11.302;2023-02-18T11:05:42;99872.41;;;7.76;100.00
40315;BME280;26021;45.640;11.302;2023-02-18T11:08:10;99886.00;;;7.82;100.00
40315;BME280;26021;45.640;11.302;2023-02-18T11:10:41;99786.97;;;7.27;100.00
40315;BME280;26021;45.640;11.302;2023-02-18T11:13:09;99875.63;;;7.79;100.00
40315;BME280;26021;45.640;11.302;2023-02-18T11:15:37;99873.75;;;8.10;100.00
40315;BME280;26021;45.640;11.302;2023-02-18T11:18:39;99869.72;;;8.16;100.00
40315;BME280;26021;45.640;11.302;2023-02-18T11:21:30;99863.22;;;7.99;100.00
40315;BME280;26021;45.640;11.302;2023-02-18T11:24:06;99857.88;;;7.89;100.00
40315;BME280;26021;45.640;11.302;2023-02-18T11:26:35;99859.16;;;8.05;100.00
40315;BME280;26021;45.640;11.302;2023-02-18T11:29:20;99857.63;;;8.12;100.00
40315;BME280;26021;45.640;11.302;2023-02-18T11:31:49;99859.38;;;7.82;100.00
40315;BME280;26021;45.640;11.302;2023-02-18T11:34:20;99857.16;;;7.87;100.00
40315;BME280;26021;45.640;11.302;2023-02-18T11:36:47;99815.56;;;7.56;100.00
40315;BME280;26021;45.640;11.302;2023-02-18T11:39:22;99816.84;;;7.61;100.00
40315;BME280;26021;45.640;11.302;2023-02-18T11:41:57;99845.28;;;8.01;100.00
40315;BME280;26021;45.640;11.302;2023-02-18T11:44:28;99848.47;;;7.85;100.00
40315;BME280;26021;45.640;11.302;2023-02-18T11:47:01;99834.91;;;7.98;100.00
40315;BME280;26021;45.640;11.302;2023-02-18T11:49:27;99823.63;;;7.75;100.00
40315;BME280;26021;45.640;11.302;2023-02-18T11:51:54;99828.56;;;7.89;100.00
40315;BME280;26021;45.640;11.302;2023-02-18T11:54:29;99780.28;;;7.63;100.00
40315;BME280;26021;45.640;11.302;2023-02-18T11:57:04;99837.72;;;8.16;100.00
40315;BME280;26021;45.640;11.302;2023-02-18T11:59:38;99767.16;;;7.91;100.00
40315;BME280;26021;45.640;11.302;2023-02-18T12:04:40;99774.97;;;7.73;100.00
40315;BME280;26021;45.640;11.302;2023-02-18T12:09:43;99807.00;;;8.02;100.00
40315;BME280;26021;45.640;11.302;2023-02-18T12:12:30;99805.19;;;8.03;100.00
40315;BME280;26021;45.640;11.302;2023-02-18T12:14:58;99779.38;;;8.13;100.00
40315;BME280;26021;45.640;11.302;2023-02-18T12:20:35;99785.47;;;8.24;100.00
40315;BME280;26021;45.640;11.302;2023-02-18T12:23:16;99791.50;;;8.26;100.00
40315;BME280;26021;45.640;11.302;2023-02-18T12:28:31;99792.25;;;7.88;100.00
40315;BME280;26021;45.640;11.302;2023-02-18T12:42:01;99768.44;;;8.16;100.00
40315;BME280;26021;45.640;11.302;2023-02-18T12:44:37;99772.31;;;8.42;100.00
40315;BME280;26021;45.640;11.302;2023-02-18T12:47:30;99772.44;;;8.41;100.00
40315;BME280;26021;45.640;11.302;2023-02-18T12:58:16;99752.53;;;8.45;100.00
40315;BME280;26021;45.640;11.302;2023-02-18T13:14:03;99737.72;;;8.02;100.00
40315;BME280;26021;45.640;11.302;2023-02-18T13:16:34;99724.84;;;8.17;100.00
40315;BME280;26021;45.640;11.302;2023-02-18T13:19:25;99727.50;;;8.07;100.00
40315;BME280;26021;45.640;11.302;2023-02-18T13:21:54;99720.81;;;8.22;100.00
40315;BME280;26021;45.640;11.302;2023-02-18T13:29:38;99624.72;;;7.47;100.00
40315;BME280;26021;45.640;11.302;2023-02-18T13:34:44;99710.66;;;8.16;100.00
40315;BME280;26021;45.640;11.302;2023-02-18T13:40:07;99702.00;;;8.53;100.00
40315;BME280;26021;45.640;11.302;2023-02-18T13:42:38;99701.75;;;8.37;100.00
40315;BME280;26021;45.640;11.302;2023-02-18T13:47:48;99706.91;;;8.48;100.00
40315;BME280;26021;45.640;11.302;2023-02-18T13:55:45;99693.84;;;8.64;100.00
40315;BME280;26021;45.640;11.302;2023-02-18T13:58:33;99660.34;;;8.33;100.00
40315;BME280;26021;45.640;11.302;2023-02-18T14:06:03;99660.06;;;7.97;100.00
40315;BME280;26021;45.640;11.302;2023-02-18T14:08:38;99688.38;;;8.17;100.00
40315;BME280;26021;45.640;11.302;2023-02-18T14:13:48;99695.00;;;8.23;100.00
40315;BME280;26021;45.640;11.302;2023-02-18T14:16:18;99685.72;;;8.08;100.00
40315;BME280;26021;45.640;11.302;2023-02-18T14:26:17;99672.13;;;8.40;100.00
40315;BME280;26021;45.640;11.302;2023-02-18T14:33:39;99615.88;;;8.04;100.00
40315;BME280;26021;45.640;11.302;2023-02-18T14:45:01;99663.00;;;8.33;100.00
40315;BME280;26021;45.640;11.302;2023-02-18T14:47:49;99654.19;;;8.22;100.00
40315;BME280;26021;45.640;11.302;2023-02-18T14:50:20;99661.03;;;8.25;100.00
40315;BME280;26021;45.640;11.302;2023-02-18T14:52:49;99657.66;;;8.13;100.00
40315;BME280;26021;45.640;11.302;2023-02-18T14:55:23;99650.53;;;8.04;100.00
40315;BME280;26021;45.640;11.302;2023-02-18T14:58:05;99643.78;;;8.00;100.00
40315;BME280;26021;45.640;11.302;2023-02-18T15:00:38;99646.88;;;7.95;100.00
40315;BME280;26021;45.640;11.302;2023-02-18T15:03:11;99652.06;;;7.97;100.00
40315;BME280;26021;45.640;11.302;2023-02-18T15:05:38;99620.13;;;7.78;100.00
40315;BME280;26021;45.640;11.302;2023-02-18T15:08:06;99587.59;;;7.64;100.00
40315;BME280;26021;45.640;11.302;2023-02-18T15:10:38;99645.34;;;8.03;100.00
40315;BME280;26021;45.640;11.302;2023-02-18T15:13:08;99637.19;;;8.04;100.00
40315;BME280;26021;45.640;11.302;2023-02-18T15:15:37;99643.81;;;8.19;100.00
40315;BME280;26021;45.640;11.302;2023-02-18T15:18:03;99646.16;;;8.03;100.00
40315;BME280;26021;45.640;11.302;2023-02-18T15:20:33;99638.88;;;8.05;100.00
40315;BME280;26021;45.640;11.302;2023-02-18T15:22:59;99602.16;;;7.80;100.00
40315;BME280;26021;45.640;11.302;2023-02-18T15:25:25;99622.34;;;7.82;100.00
40315;BME280;26021;45.640;11.302;2023-02-18T15:27:51;99645.19;;;8.04;100.00
40315;BME280;26021;45.640;11.302;2023-02-18T15:30:28;99652.06;;;7.87;100.00